| time (UTC) | temp C | wind direction | speed KPH | gust KPH | rain 1hr cm | rain 24hr cm | rain mn cm | humidity % | barometer mb |
| 20260503213115 | 24 | 354 | 8.0 | 9.7 | 0.00 | 0.00 | 0.00 | 99 | 1010.7 |
| 20260503212915 | 24 | 1 | 8.0 | 8.0 | 0.00 | 0.00 | 0.00 | 99 | 1010.7 |
| 20260503212715 | 24 | 8 | 3.2 | 8.0 | 0.00 | 0.00 | 0.00 | 99 | 1010.8 |
| 20260503212515 | 24 | 356 | 4.8 | 9.7 | 0.00 | 0.00 | 0.00 | 99 | 1010.7 |
| 20260503212245 | 24 | 333 | 4.8 | 4.8 | 0.00 | 0.00 | 0.00 | 99 | 1010.8 |
| 20260503212015 | 24 | 341 | 4.8 | 8.0 | 0.00 | 0.00 | 0.00 | 99 | 1010.8 |
| 20260503211745 | 24 | 10 | 4.8 | 8.0 | 0.00 | 0.00 | 0.00 | 99 | 1010.8 |
| 20260503211545 | 23 | 359 | 3.2 | 4.8 | 0.00 | 0.00 | 0.00 | 99 | 1010.8 |
| 20260503211345 | 23 | 5 | 4.8 | 8.0 | 0.00 | 0.00 | 0.00 | 99 | 1010.8 |
| 20260503211115 | 23 | 16 | 4.8 | 9.7 | 0.00 | 0.00 | 0.00 | 99 | 1010.9 |
| 20260503210915 | 23 | 23 | 3.2 | 4.8 | 0.00 | 0.00 | 0.00 | 99 | 1010.9 |
| 20260503210645 | 23 | 3 | 4.8 | 4.8 | 0.00 | 0.00 | 0.00 | 99 | 1010.9 |
| 20260503210445 | 23 | 338 | 4.8 | 9.7 | 0.00 | 0.00 | 0.00 | 99 | 1011.0 |
| 20260503210245 | 23 | 14 | 8.0 | 9.7 | 0.00 | 0.00 | 0.00 | 99 | 1011.0 |
| 20260503210015 | 23 | 356 | 4.8 | 8.0 | 0.00 | 0.00 | 0.00 | 99 | 1011.0 |
| 20260503205745 | 23 | 346 | 4.8 | 8.0 | 0.00 | 0.00 | 0.00 | 99 | 1011.1 |
| 20260503205545 | 23 | 350 | 4.8 | 9.7 | 0.00 | 0.00 | 0.00 | 99 | 1011.1 |
| 20260503205315 | 23 | 352 | 4.8 | 9.7 | 0.00 | 0.00 | 0.00 | 99 | 1011.1 |
| 20260503205115 | 23 | 2 | 8.0 | 9.7 | 0.00 | 0.00 | 0.00 | 99 | 1011.1 |
| 20260503204845 | 23 | 3 | 8.0 | 11.3 | 0.00 | 0.00 | 0.00 | 99 | 1011.2 |
| 20260503204615 | 23 | 16 | 4.8 | 4.8 | 0.00 | 0.00 | 0.00 | 99 | 1011.2 |
| 20260503204345 | 23 | 18 | 8.0 | 8.0 | 0.00 | 0.00 | 0.00 | 99 | 1011.3 |
| 20260503204145 | 23 | 21 | 8.0 | 11.3 | 0.00 | 0.00 | 0.00 | 99 | 1011.3 |
| 20260503203945 | 23 | 15 | 9.7 | 11.3 | 0.00 | 0.00 | 0.00 | 99 | 1011.3 |
| 20260503203745 | 23 | 1 | 9.7 | 11.3 | 0.00 | 0.00 | 0.00 | 99 | 1011.3 |
| 20260503203515 | 23 | 4 | 8.0 | 14.5 | 0.00 | 0.00 | 0.00 | 99 | 1011.3 |
| 20260503203315 | 23 | 357 | 9.7 | 12.9 | 0.00 | 0.00 | 0.00 | 99 | 1011.3 |
| 20260503203115 | 23 | 353 | 8.0 | 9.7 | 0.00 | 0.00 | 0.00 | 99 | 1011.4 |
| 20260503202845 | 23 | 9 | 9.7 | 11.3 | 0.00 | 0.00 | 0.00 | 99 | 1011.4 |
| 20260503202645 | 23 | 5 | 8.0 | 12.9 | 0.00 | 0.00 | 0.00 | 99 | 1011.5 |
| 20260503202445 | 23 | 5 | 8.0 | 11.3 | 0.00 | 0.00 | 0.00 | 99 | 1011.5 |
| 20260503202245 | 23 | 7 | 8.0 | 11.3 | 0.00 | 0.00 | 0.00 | 99 | 1011.5 |
| 20260503202015 | 23 | 358 | 8.0 | 9.7 | 0.00 | 0.00 | 0.00 | 99 | 1011.6 |
| 20260503201815 | 23 | 354 | 9.7 | 12.9 | 0.00 | 0.00 | 0.00 | 99 | 1011.6 |
| 20260503201615 | 23 | 14 | 8.0 | 11.3 | 0.00 | 0.00 | 0.00 | 99 | 1011.6 |
| 20260503201415 | 23 | 2 | 8.0 | 11.3 | 0.00 | 0.00 | 0.00 | 99 | 1011.7 |
| 20260503201215 | 23 | 0 | 11.3 | 14.5 | 0.00 | 0.00 | 0.00 | 99 | 1011.6 |
| 20260503201015 | 23 | 3 | 8.0 | 11.3 | 0.00 | 0.00 | 0.00 | 99 | 1011.7 |
| 20260503200815 | 23 | 11 | 8.0 | 12.9 | 0.00 | 0.00 | 0.00 | 99 | 1011.7 |
| 20260503200545 | 23 | 16 | 8.0 | 12.9 | 0.00 | 0.00 | 0.00 | 99 | 1011.7 |
| 20260503200345 | 23 | 12 | 8.0 | 9.7 | 0.00 | 0.00 | 0.00 | 99 | 1011.7 |
| 20260503200145 | 23 | 12 | 8.0 | 11.3 | 0.00 | 0.00 | 0.00 | 99 | 1011.8 |
| 20260503195945 | 23 | 5 | 4.8 | 11.3 | 0.00 | 0.00 | 0.00 | 99 | 1011.8 |
| 20260503195745 | 23 | 8 | 4.8 | 8.0 | 0.00 | 0.00 | 0.00 | 99 | 1011.9 |
| 20260503195545 | 24 | 6 | 8.0 | 11.3 | 0.00 | 0.00 | 0.00 | 99 | 1011.9 |
| 20260503195315 | 24 | 32 | 3.2 | 8.0 | 0.00 | 0.00 | 0.00 | 99 | 1011.8 |
| 20260503195115 | 24 | 14 | 1.6 | 4.8 | 0.00 | 0.00 | 0.00 | 99 | 1011.9 |
| 20260503194915 | 23 | 3 | 3.2 | 3.2 | 0.00 | 0.00 | 0.00 | 99 | 1011.9 |
| 20260503194715 | 23 | 0 | 3.2 | 3.2 | 0.00 | 0.00 | 0.00 | 99 | 1011.9 |
| 20260503194515 | 23 | 308 | 1.6 | 4.8 | 0.00 | 0.00 | 0.00 | 99 | 1012.0 |
| 20260503194245 | 23 | 323 | 3.2 | 8.0 | 0.00 | 0.00 | 0.00 | 99 | 1012.0 |
| 20260503194045 | 23 | 332 | 1.6 | 4.8 | 0.00 | 0.00 | 0.00 | 99 | 1012.0 |
| 20260503193845 | 22 | 349 | 8.0 | 9.7 | 0.00 | 0.00 | 0.00 | 99 | 1012.0 |
| 20260503193615 | 22 | 343 | 1.6 | 4.8 | 0.00 | 0.00 | 0.00 | 99 | 1012.0 |
| 20260503193415 | 22 | 345 | 9.7 | 14.5 | 0.00 | 0.00 | 0.00 | 99 | 1012.1 |
| 20260503193215 | 22 | 322 | 8.0 | 8.0 | 0.00 | 0.00 | 0.00 | 99 | 1012.1 |
| 20260503193015 | 22 | 19 | 8.0 | 14.5 | 0.00 | 0.00 | 0.00 | 99 | 1012.1 |
| 20260503192815 | 22 | 6 | 4.8 | 11.3 | 0.00 | 0.00 | 0.00 | 99 | 1012.1 |
| 20260503192615 | 22 | 352 | 11.3 | 14.5 | 0.00 | 0.00 | 0.00 | 99 | 1012.1 |
| 20260503192415 | 22 | 9 | 8.0 | 9.7 | 0.00 | 0.00 | 0.00 | 99 | 1012.2 |
| 20260503192145 | 22 | 355 | 9.7 | 11.3 | 0.00 | 0.00 | 0.00 | 99 | 1012.2 |
| 20260503191945 | 22 | 0 | 9.7 | 12.9 | 0.00 | 0.00 | 0.00 | 99 | 1012.1 |
| 20260503191715 | 21 | 7 | 8.0 | 9.7 | 0.00 | 0.00 | 0.00 | 99 | 1012.2 |
| 20260503191515 | 21 | 0 | 8.0 | 12.9 | 0.00 | 0.00 | 0.00 | 99 | 1012.2 |
| 20260503191315 | 21 | 358 | 9.7 | 19.3 | 0.00 | 0.00 | 0.00 | 99 | 1012.2 |
| 20260503191115 | 21 | 359 | 11.3 | 12.9 | 0.00 | 0.00 | 0.00 | 99 | 1012.2 |
| 20260503190915 | 21 | 0 | 8.0 | 9.7 | 0.00 | 0.00 | 0.00 | 99 | 1012.3 |
| 20260503190715 | 21 | 12 | 8.0 | 12.9 | 0.00 | 0.00 | 0.00 | 99 | 1012.2 |
| 20260503190515 | 22 | 4 | 9.7 | 14.5 | 0.00 | 0.00 | 0.00 | 99 | 1012.3 |
| 20260503190315 | 22 | 9 | 9.7 | 14.5 | 0.00 | 0.00 | 0.00 | 99 | 1012.3 |
| 20260503190045 | 22 | 4 | 8.0 | 9.7 | 0.00 | 0.00 | 0.00 | 99 | 1012.3 |
| 20260503185845 | 22 | 1 | 9.7 | 12.9 | 0.00 | 0.00 | 0.00 | 99 | 1012.3 |
| 20260503185615 | 22 | 348 | 8.0 | 14.5 | 0.00 | 0.00 | 0.00 | 99 | 1012.3 |
| 20260503185345 | 22 | 7 | 9.7 | 16.1 | 0.00 | 0.00 | 0.00 | 99 | 1012.3 |
| 20260503185145 | 22 | 339 | 9.7 | 14.5 | 0.00 | 0.00 | 0.00 | 99 | 1012.4 |
| 20260503184915 | 22 | 0 | 3.2 | 4.8 | 0.00 | 0.00 | 0.00 | 99 | 1012.4 |
| 20260503184715 | 22 | 354 | 9.7 | 16.1 | 0.00 | 0.00 | 0.00 | 99 | 1012.4 |
| 20260503184515 | 22 | 345 | 9.7 | 12.9 | 0.00 | 0.00 | 0.00 | 99 | 1012.4 |
| 20260503184315 | 22 | 338 | 8.0 | 8.0 | 0.00 | 0.00 | 0.00 | 99 | 1012.4 |
| 20260503184045 | 22 | 2 | 9.7 | 11.3 | 0.00 | 0.00 | 0.00 | 99 | 1012.4 |
| 20260503183844 | 22 | 339 | 3.2 | 8.0 | 0.00 | 0.00 | 0.00 | 99 | 1012.4 |
| 20260503183614 | 22 | 5 | 4.8 | 12.9 | 0.00 | 0.00 | 0.00 | 99 | 1012.4 |
| 20260503183414 | 22 | 355 | 8.0 | 11.3 | 0.00 | 0.00 | 0.00 | 99 | 1012.4 |
| 20260503183145 | 23 | 330 | 3.2 | 4.8 | 0.00 | 0.00 | 0.00 | 99 | 1012.5 |
| 20260503182944 | 23 | 321 | 4.8 | 4.8 | 0.00 | 0.00 | 0.00 | 99 | 1012.5 |
| 20260503182744 | 23 | 338 | 4.8 | 12.9 | 0.00 | 0.00 | 0.00 | 99 | 1012.5 |
| 20260503182544 | 23 | 321 | 3.2 | 8.0 | 0.00 | 0.00 | 0.00 | 99 | 1012.5 |
| 20260503182344 | 22 | 316 | 4.8 | 12.9 | 0.00 | 0.00 | 0.00 | 99 | 1012.5 |
| 20260503182145 | 22 | 2 | 4.8 | 12.9 | 0.00 | 0.00 | 0.00 | 99 | 1012.5 |
| 20260503181944 | 22 | 297 | 4.8 | 12.9 | 0.00 | 0.00 | 0.00 | 99 | 1012.5 |
| 20260503181744 | 22 | 341 | 4.8 | 14.5 | 0.00 | 0.00 | 0.00 | 99 | 1012.6 |
| 20260503181544 | 22 | 14 | 3.2 | 9.7 | 0.00 | 0.00 | 0.00 | 99 | 1012.6 |
| 20260503181344 | 22 | 357 | 3.2 | 9.7 | 0.00 | 0.00 | 0.00 | 99 | 1012.6 |
| 20260503181144 | 22 | 354 | 4.8 | 12.9 | 0.00 | 0.00 | 0.00 | 99 | 1012.5 |
| 20260503180914 | 22 | 295 | 8.0 | 11.3 | 0.00 | 0.00 | 0.00 | 99 | 1012.6 |
| 20260503180644 | 22 | 314 | 8.0 | 12.9 | 0.00 | 0.00 | 0.00 | 99 | 1012.5 |
| 20260503180444 | 22 | 294 | 4.8 | 9.7 | 0.00 | 0.00 | 0.00 | 99 | 1012.6 |
| 20260503180244 | 22 | 358 | 8.0 | 11.3 | 0.00 | 0.00 | 0.00 | 99 | 1012.6 |
| 20260503180044 | 22 | 312 | 8.0 | 9.7 | 0.00 | 0.00 | 0.00 | 99 | 1012.7 |
| 20260503175844 | 22 | 336 | 4.8 | 11.3 | 0.00 | 0.00 | 0.00 | 99 | 1012.6 |
| 20260503175644 | 22 | 292 | 4.8 | 8.0 | 0.00 | 0.00 | 0.00 | 99 | 1012.7 |
| 20260503175444 | 22 | 339 | 3.2 | 11.3 | 0.00 | 0.00 | 0.00 | 99 | 1012.7 |
| 20260503175244 | 22 | 284 | 0.0 | 4.8 | 0.00 | 0.00 | 0.00 | 99 | 1012.7 |
| 20260503175014 | 22 | 338 | 3.2 | 11.3 | 0.00 | 0.00 | 0.00 | 99 | 1012.7 |
| 20260503174814 | 22 | 272 | 3.2 | 4.8 | 0.00 | 0.00 | 0.00 | 99 | 1012.8 |
| 20260503174614 | 22 | 306 | 4.8 | 4.8 | 0.00 | 0.00 | 0.00 | 99 | 1012.8 |
| 20260503174414 | 22 | 334 | 1.6 | 4.8 | 0.00 | 0.00 | 0.00 | 99 | 1012.8 |
| 20260503174144 | 22 | 4 | 3.2 | 8.0 | 0.00 | 0.00 | 0.00 | 99 | 1012.8 |
| 20260503173944 | 22 | 284 | 3.2 | 8.0 | 0.00 | 0.00 | 0.00 | 99 | 1012.8 |
| 20260503173744 | 21 | 334 | 4.8 | 4.8 | 0.00 | 0.00 | 0.00 | 99 | 1012.8 |
| 20260503173544 | 21 | 286 | 4.8 | 14.5 | 0.00 | 0.00 | 0.00 | 99 | 1012.9 |
| 20260503173314 | 21 | 352 | 4.8 | 8.0 | 0.00 | 0.00 | 0.00 | 99 | 1012.9 |
| 20260503173114 | 21 | 336 | 4.8 | 9.7 | 0.00 | 0.00 | 0.00 | 99 | 1012.9 |
| 20260503172914 | 21 | 355 | 1.6 | 4.8 | 0.00 | 0.00 | 0.00 | 99 | 1012.9 |
| 20260503172714 | 21 | 356 | 4.8 | 12.9 | 0.00 | 0.00 | 0.00 | 99 | 1012.9 |
| 20260503172514 | 21 | 1 | 8.0 | 8.0 | 0.00 | 0.00 | 0.00 | 99 | 1012.9 |
| 20260503172244 | 21 | 335 | 3.2 | 4.8 | 0.00 | 0.00 | 0.00 | 99 | 1012.9 |
| 20260503172044 | 21 | 341 | 8.0 | 11.3 | 0.00 | 0.00 | 0.00 | 99 | 1012.9 |
| 20260503171814 | 21 | 356 | 8.0 | 9.7 | 0.00 | 0.00 | 0.00 | 99 | 1012.9 |
| 20260503171544 | 21 | 346 | 4.8 | 8.0 | 0.00 | 0.00 | 0.00 | 99 | 1013.0 |
| 20260503171344 | 21 | 5 | 4.8 | 8.0 | 0.00 | 0.00 | 0.00 | 99 | 1012.9 |
| 20260503171144 | 20 | 324 | 4.8 | 11.3 | 0.00 | 0.00 | 0.00 | 99 | 1012.9 |
| 20260503170944 | 20 | 6 | 9.7 | 14.5 | 0.00 | 0.00 | 0.00 | 99 | 1012.9 |
| 20260503170714 | 20 | 16 | 8.0 | 12.9 | 0.00 | 0.00 | 0.00 | 99 | 1013.0 |
| 20260503170444 | 20 | 8 | 8.0 | 12.9 | 0.00 | 0.00 | 0.00 | 99 | 1013.0 |
| 20260503170244 | 20 | 349 | 9.7 | 16.1 | 0.00 | 0.00 | 0.00 | 99 | 1013.0 |
| 20260503150914 | 18 | 19 | 3.2 | 4.8 | 0.00 | 0.03 | 0.00 | 99 | 1013.5 |
| 20260503150714 | 17 | 4 | 4.8 | 12.9 | 0.00 | 0.05 | 0.00 | 99 | 1013.5 |
| 20260503150444 | 18 | 3 | 1.6 | 4.8 | 0.00 | 0.05 | 0.00 | 99 | 1013.4 |
| 20260503150244 | 18 | 6 | 1.6 | 4.8 | 0.00 | 0.08 | 0.00 | 99 | 1013.4 |
| 20260503140244 | 16 | 303 | 0.0 | 0.0 | 0.00 | 0.10 | 0.00 | 99 | 1013.4 |
| 20260503131414 | 16 | 323 | 1.6 | 8.0 | 0.00 | 0.10 | 0.00 | 99 | 1013.2 |
| 20260503131214 | 16 | 26 | 1.6 | 3.2 | 0.00 | 0.10 | 0.00 | 99 | 1013.2 |
| 20260503131014 | 16 | 257 | 0.0 | 0.0 | 0.00 | 0.10 | 0.00 | 99 | 1013.2 |
| 20260503130744 | 16 | 348 | 3.2 | 9.7 | 0.00 | 0.10 | 0.00 | 99 | 1013.3 |
| 20260503130514 | 16 | 266 | 1.6 | 4.8 | 0.00 | 0.10 | 0.00 | 99 | 1013.2 |
| 20260503130314 | 16 | 305 | 0.0 | 4.8 | 0.00 | 0.10 | 0.00 | 99 | 1013.2 |
| 20260503120144 | 17 | 356 | 0.0 | 8.0 | 0.00 | 0.10 | 0.00 | 99 | 1013.1 |
| 20260503110714 | 17 | 355 | 1.6 | 4.8 | 0.00 | 0.10 | 0.00 | 99 | 1013.3 |
| 20260503110514 | 17 | 7 | 0.0 | 1.6 | 0.00 | 0.10 | 0.00 | 99 | 1013.2 |
| 20260503110244 | 17 | 6 | 1.6 | 1.6 | 0.00 | 0.10 | 0.00 | 99 | 1013.2 |
| 20260503100143 | 17 | 309 | 3.2 | 4.8 | 0.00 | 0.10 | 0.00 | 99 | 1013.1 |
| 20260503090343 | 18 | 310 | 0.0 | 0.0 | 0.00 | 0.10 | 0.00 | 99 | 1013.1 |
| 20260503090143 | 18 | 309 | 0.0 | 0.0 | 0.00 | 0.10 | 0.00 | 99 | 1013.0 |
| 20260503081613 | 19 | 336 | 0.0 | 1.6 | 0.00 | 0.10 | 0.00 | 99 | 1012.9 |
| 20260503081413 | 20 | 336 | 0.0 | 1.6 | 0.00 | 0.10 | 0.00 | 99 | 1012.9 |
| 20260503081143 | 20 | 336 | 0.0 | 3.2 | 0.00 | 0.10 | 0.00 | 99 | 1012.9 |
| 20260503080913 | 19 | 338 | 3.2 | 4.8 | 0.00 | 0.10 | 0.00 | 99 | 1012.9 |
| 20260503080643 | 19 | 353 | 1.6 | 3.2 | 0.00 | 0.10 | 0.00 | 99 | 1012.9 |
| 20260503080413 | 19 | 9 | 0.0 | 1.6 | 0.00 | 0.10 | 0.00 | 99 | 1012.9 |
| 20260503080213 | 19 | 334 | 0.0 | 1.6 | 0.00 | 0.10 | 0.00 | 99 | 1012.9 |
| 20260503072843 | 20 | 333 | 0.0 | 3.2 | 0.00 | 0.10 | 0.00 | 99 | 1012.8 |
| 20260503072613 | 20 | 304 | 0.0 | 0.0 | 0.00 | 0.10 | 0.00 | 99 | 1012.8 |
| 20260503072413 | 20 | 316 | 1.6 | 3.2 | 0.00 | 0.10 | 0.00 | 99 | 1012.8 |
| 20260503072213 | 20 | 311 | 0.0 | 0.0 | 0.00 | 0.10 | 0.00 | 99 | 1012.8 |
| 20260503071943 | 20 | 311 | 0.0 | 0.0 | 0.00 | 0.10 | 0.00 | 99 | 1012.8 |
| 20260503071743 | 20 | 311 | 0.0 | 0.0 | 0.00 | 0.10 | 0.00 | 99 | 1012.7 |
| 20260503071513 | 20 | 311 | 0.0 | 0.0 | 0.00 | 0.10 | 0.00 | 99 | 1012.8 |
| 20260503071243 | 20 | 307 | 0.0 | 0.0 | 0.00 | 0.10 | 0.00 | 99 | 1012.7 |
| 20260503071013 | 20 | 307 | 0.0 | 0.0 | 0.00 | 0.10 | 0.00 | 99 | 1012.7 |
| 20260503070813 | 20 | 324 | 0.0 | 1.6 | 0.00 | 0.10 | 0.00 | 99 | 1012.7 |
| 20260503070543 | 20 | 323 | 0.0 | 0.0 | 0.00 | 0.10 | 0.00 | 99 | 1012.7 |
| 20260503070343 | 20 | 323 | 0.0 | 0.0 | 0.00 | 0.10 | 0.00 | 99 | 1012.6 |
| 20260503070143 | 20 | 323 | 0.0 | 1.6 | 0.00 | 0.10 | 0.00 | 99 | 1012.6 |
| 20260503060343 | 21 | 317 | 0.0 | 3.2 | 0.00 | 0.10 | 0.10 | 99 | 1012.5 |
| 20260503060113 | 21 | 316 | 1.6 | 1.6 | 0.00 | 0.10 | 0.10 | 99 | 1012.4 |
| 20260503055113 | 21 | 320 | 0.0 | 3.2 | 0.00 | 0.10 | 0.10 | 99 | 1012.5 |
| 20260503054913 | 21 | 222 | 1.6 | 4.8 | 0.00 | 0.10 | 0.10 | 99 | 1012.4 |
| 20260503054643 | 21 | 334 | 4.8 | 4.8 | 0.00 | 0.10 | 0.10 | 99 | 1012.4 |
| 20260503054413 | 21 | 234 | 0.0 | 1.6 | 0.00 | 0.10 | 0.10 | 99 | 1012.4 |
| 20260503054213 | 21 | 228 | 0.0 | 3.2 | 0.00 | 0.10 | 0.10 | 99 | 1012.4 |
| 20260503054013 | 21 | 254 | 1.6 | 4.8 | 0.00 | 0.10 | 0.10 | 99 | 1012.4 |
| 20260503053813 | 21 | 321 | 0.0 | 3.2 | 0.00 | 0.10 | 0.10 | 99 | 1012.4 |
| 20260503053613 | 20 | 281 | 0.0 | 8.0 | 0.00 | 0.10 | 0.10 | 99 | 1012.4 |
| 20260503053343 | 20 | 254 | 1.6 | 3.2 | 0.00 | 0.10 | 0.10 | 99 | 1012.4 |
| 20260503053143 | 20 | 258 | 1.6 | 4.8 | 0.00 | 0.10 | 0.10 | 99 | 1012.4 |
| 20260503052943 | 20 | 214 | 1.6 | 4.8 | 0.00 | 0.10 | 0.10 | 99 | 1012.5 |
| 20260503052743 | 20 | 234 | 0.0 | 0.0 | 0.00 | 0.10 | 0.10 | 99 | 1012.5 |
| 20260503052513 | 20 | 303 | 0.0 | 1.6 | 0.00 | 0.10 | 0.10 | 99 | 1012.5 |
| 20260503052243 | 20 | 313 | 0.0 | 0.0 | 0.00 | 0.10 | 0.10 | 99 | 1012.5 |
| 20260503052013 | 20 | 245 | 1.6 | 1.6 | 0.00 | 0.10 | 0.10 | 99 | 1012.5 |
| 20260503051813 | 20 | 274 | 1.6 | 4.8 | 0.00 | 0.10 | 0.10 | 99 | 1012.5 |
| 20260503051543 | 20 | 293 | 0.0 | 1.6 | 0.00 | 0.10 | 0.10 | 99 | 1012.5 |
| 20260503051343 | 20 | 281 | 3.2 | 4.8 | 0.00 | 0.10 | 0.10 | 99 | 1012.5 |
| 20260503051143 | 20 | 317 | 0.0 | 0.0 | 0.00 | 0.10 | 0.10 | 99 | 1012.5 |
| 20260503050943 | 20 | 285 | 0.0 | 3.2 | 0.00 | 0.10 | 0.10 | 99 | 1012.5 |
| 20260503050743 | 20 | 241 | 1.6 | 8.0 | 0.00 | 0.10 | 0.10 | 99 | 1012.5 |
| 20260503050543 | 20 | 268 | 0.0 | 0.0 | 0.00 | 0.10 | 0.10 | 99 | 1012.5 |
| 20260503050343 | 20 | 65 | 0.0 | 1.6 | 0.00 | 0.10 | 0.10 | 99 | 1012.5 |
| 20260503050143 | 20 | 27 | 0.0 | 0.0 | 0.00 | 0.10 | 0.10 | 99 | 1012.5 |
| 20260503045943 | 20 | 27 | 0.0 | 0.0 | 0.00 | 0.10 | 0.10 | 99 | 1012.5 |
| 20260503045713 | 20 | 27 | 0.0 | 0.0 | 0.00 | 0.10 | 0.10 | 99 | 1012.5 |
| 20260503045443 | 20 | 10 | 0.0 | 0.0 | 0.00 | 0.10 | 0.10 | 99 | 1012.5 |
| 20260503045213 | 20 | 10 | 0.0 | 0.0 | 0.00 | 0.10 | 0.10 | 99 | 1012.5 |
| 20260503045013 | 20 | 10 | 0.0 | 0.0 | 0.00 | 0.10 | 0.10 | 99 | 1012.5 |
| 20260503044813 | 20 | 10 | 0.0 | 0.0 | 0.00 | 0.10 | 0.10 | 99 | 1012.5 |
| 20260503044613 | 21 | 10 | 0.0 | 0.0 | 0.00 | 0.10 | 0.10 | 99 | 1012.5 |
| 20260503044413 | 21 | 10 | 0.0 | 0.0 | 0.00 | 0.10 | 0.10 | 99 | 1012.5 |
| 20260503044213 | 21 | 10 | 0.0 | 0.0 | 0.00 | 0.10 | 0.10 | 99 | 1012.5 |
| 20260503043943 | 21 | 10 | 0.0 | 0.0 | 0.00 | 0.10 | 0.10 | 99 | 1012.5 |
| 20260503043743 | 21 | 10 | 0.0 | 0.0 | 0.00 | 0.10 | 0.10 | 99 | 1012.5 |
| 20260503043543 | 21 | 10 | 0.0 | 0.0 | 0.00 | 0.10 | 0.10 | 99 | 1012.5 |
| 20260503043343 | 21 | 10 | 0.0 | 0.0 | 0.00 | 0.10 | 0.10 | 99 | 1012.4 |
| 20260503043143 | 21 | 10 | 0.0 | 0.0 | 0.00 | 0.10 | 0.10 | 99 | 1012.4 |
| 20260503042913 | 21 | 10 | 0.0 | 0.0 | 0.00 | 0.10 | 0.10 | 99 | 1012.4 |
| 20260503042713 | 21 | 10 | 0.0 | 0.0 | 0.00 | 0.10 | 0.10 | 99 | 1012.4 |
| 20260503042443 | 21 | 12 | 0.0 | 1.6 | 0.00 | 0.10 | 0.10 | 99 | 1012.3 |
| 20260503042243 | 21 | 0 | 1.6 | 4.8 | 0.00 | 0.10 | 0.10 | 99 | 1012.4 |
| 20260503042043 | 21 | 341 | 3.2 | 4.8 | 0.00 | 0.10 | 0.10 | 99 | 1012.3 |
| 20260503041843 | 21 | 7 | 3.2 | 4.8 | 0.00 | 0.10 | 0.10 | 99 | 1012.3 |
| 20260503041643 | 21 | 355 | 1.6 | 3.2 | 0.00 | 0.10 | 0.10 | 99 | 1012.3 |
| 20260503041413 | 21 | 5 | 1.6 | 4.8 | 0.00 | 0.10 | 0.10 | 99 | 1012.3 |
| 20260503041213 | 21 | 15 | 0.0 | 4.8 | 0.00 | 0.10 | 0.10 | 99 | 1012.3 |
| 20260503040943 | 21 | 317 | 0.0 | 3.2 | 0.00 | 0.10 | 0.10 | 99 | 1012.2 |
| 20260503040743 | 22 | 322 | 0.0 | 1.6 | 0.00 | 0.10 | 0.10 | 99 | 1012.2 |
| 20260503040513 | 22 | 322 | 0.0 | 0.0 | 0.00 | 0.10 | 0.10 | 99 | 1012.2 |
| 20260503040243 | 22 | 303 | 1.6 | 3.2 | 0.00 | 0.10 | 0.10 | 99 | 1012.2 |
| 20260503040043 | 22 | 0 | 0.0 | 1.6 | 0.00 | 0.10 | 0.10 | 99 | 1012.1 |
| 20260503035843 | 22 | 5 | 1.6 | 4.8 | 0.00 | 0.10 | 0.10 | 99 | 1012.1 |
| 20260503035643 | 22 | 308 | 1.6 | 9.7 | 0.00 | 0.10 | 0.10 | 99 | 1012.1 |
| 20260503035413 | 22 | 0 | 0.0 | 0.0 | 0.00 | 0.10 | 0.10 | 99 | 1012.1 |
| 20260503035213 | 22 | 286 | 1.6 | 3.2 | 0.00 | 0.10 | 0.10 | 99 | 1012.1 |
| 20260503034943 | 22 | 312 | 0.0 | 1.6 | 0.00 | 0.10 | 0.10 | 99 | 1012.0 |
| 20260503034743 | 22 | 335 | 1.6 | 3.2 | 0.00 | 0.10 | 0.10 | 99 | 1012.0 |
| 20260503034543 | 22 | 300 | 1.6 | 4.8 | 0.00 | 0.10 | 0.10 | 99 | 1011.9 |
| 20260503034313 | 22 | 325 | 1.6 | 3.2 | 0.00 | 0.10 | 0.10 | 99 | 1011.9 |
| 20260503034113 | 22 | 320 | 1.6 | 8.0 | 0.00 | 0.10 | 0.10 | 99 | 1011.9 |
| 20260503033913 | 22 | 319 | 1.6 | 1.6 | 0.00 | 0.10 | 0.10 | 99 | 1011.9 |
| 20260503033713 | 22 | 317 | 0.0 | 1.6 | 0.00 | 0.10 | 0.10 | 99 | 1011.9 |
| 20260503033513 | 22 | 311 | 1.6 | 3.2 | 0.00 | 0.10 | 0.10 | 99 | 1011.9 |
| 20260503033243 | 22 | 345 | 3.2 | 4.8 | 0.00 | 0.10 | 0.10 | 99 | 1011.8 |
| 20260503033043 | 22 | 341 | 0.0 | 4.8 | 0.00 | 0.10 | 0.10 | 99 | 1011.8 |
| 20260503032813 | 22 | 355 | 1.6 | 4.8 | 0.00 | 0.10 | 0.10 | 99 | 1011.8 |
| 20260503032613 | 22 | 316 | 8.0 | 8.0 | 0.00 | 0.10 | 0.10 | 99 | 1011.8 |
| 20260503032413 | 22 | 293 | 1.6 | 3.2 | 0.00 | 0.10 | 0.10 | 99 | 1011.8 |
| 20260503032143 | 22 | 22 | 1.6 | 4.8 | 0.00 | 0.10 | 0.10 | 99 | 1011.7 |
| 20260503031943 | 22 | 286 | 1.6 | 4.8 | 0.00 | 0.10 | 0.10 | 99 | 1011.7 |
| 20260503031743 | 22 | 318 | 3.2 | 8.0 | 0.00 | 0.10 | 0.10 | 99 | 1011.8 |
| 20260503031513 | 22 | 345 | 0.0 | 4.8 | 0.00 | 0.10 | 0.10 | 99 | 1011.7 |
| 20260503031243 | 22 | 355 | 4.8 | 8.0 | 0.00 | 0.10 | 0.10 | 99 | 1011.7 |
| 20260503031043 | 23 | 311 | 1.6 | 3.2 | 0.00 | 0.10 | 0.10 | 99 | 1011.7 |
| 20260503030813 | 23 | 309 | 0.0 | 1.6 | 0.00 | 0.10 | 0.10 | 99 | 1011.7 |
| 20260503030543 | 23 | 340 | 3.2 | 9.7 | 0.00 | 0.10 | 0.10 | 99 | 1011.6 |
| 20260503030313 | 23 | 339 | 3.2 | 4.8 | 0.00 | 0.10 | 0.10 | 99 | 1011.6 |
| 20260503030113 | 23 | 356 | 3.2 | 9.7 | 0.00 | 0.10 | 0.10 | 99 | 1011.6 |
| 20260503025912 | 23 | 356 | 4.8 | 4.8 | 0.00 | 0.10 | 0.10 | 99 | 1011.6 |
| 20260503025712 | 23 | 353 | 1.6 | 3.2 | 0.00 | 0.10 | 0.10 | 99 | 1011.6 |
| 20260503025443 | 23 | 5 | 1.6 | 3.2 | 0.00 | 0.10 | 0.10 | 99 | 1011.6 |
| 20260503025242 | 23 | 355 | 0.0 | 1.6 | 0.00 | 0.10 | 0.10 | 99 | 1011.6 |
| 20260503025042 | 23 | 12 | 1.6 | 3.2 | 0.00 | 0.10 | 0.10 | 99 | 1011.6 |
| 20260503024842 | 23 | 357 | 1.6 | 8.0 | 0.00 | 0.10 | 0.10 | 99 | 1011.6 |
| 20260503024642 | 23 | 347 | 1.6 | 3.2 | 0.00 | 0.10 | 0.10 | 99 | 1011.6 |
| 20260503024412 | 23 | 5 | 1.6 | 1.6 | 0.00 | 0.10 | 0.10 | 99 | 1011.7 |
| 20260503024142 | 23 | 342 | 1.6 | 4.8 | 0.00 | 0.10 | 0.10 | 99 | 1011.6 |
| 20260503023942 | 23 | 304 | 1.6 | 4.8 | 0.00 | 0.10 | 0.10 | 99 | 1011.6 |
| 20260503023742 | 23 | 37 | 3.2 | 4.8 | 0.00 | 0.10 | 0.10 | 99 | 1011.7 |
| 20260503023512 | 23 | 3 | 4.8 | 8.0 | 0.00 | 0.10 | 0.10 | 99 | 1011.7 |
| 20260503023312 | 23 | 347 | 3.2 | 9.7 | 0.00 | 0.10 | 0.10 | 99 | 1011.7 |
| 20260503023112 | 23 | 359 | 4.8 | 12.9 | 0.00 | 0.10 | 0.10 | 99 | 1011.6 |
| 20260503022912 | 23 | 32 | 3.2 | 4.8 | 0.00 | 0.10 | 0.10 | 99 | 1011.7 |
| 20260503022712 | 23 | 279 | 3.2 | 8.0 | 0.00 | 0.10 | 0.10 | 99 | 1011.6 |
| 20260503022512 | 23 | 338 | 4.8 | 19.3 | 0.00 | 0.10 | 0.10 | 99 | 1011.7 |
| 20260503022242 | 24 | 339 | 4.8 | 11.3 | 0.00 | 0.10 | 0.10 | 99 | 1011.7 |
| 20260503022012 | 24 | 344 | 4.8 | 12.9 | 0.00 | 0.10 | 0.10 | 99 | 1011.7 |
| 20260503021742 | 24 | 328 | 1.6 | 4.8 | 0.00 | 0.10 | 0.10 | 99 | 1011.7 |
| 20260503021542 | 24 | 5 | 3.2 | 4.8 | 0.00 | 0.10 | 0.10 | 99 | 1011.7 |
| 20260503021312 | 24 | 5 | 4.8 | 9.7 | 0.00 | 0.10 | 0.10 | 99 | 1011.7 |
| 20260503021112 | 24 | 353 | 4.8 | 9.7 | 0.00 | 0.10 | 0.10 | 99 | 1011.7 |
| 20260503020912 | 24 | 31 | 1.6 | 4.8 | 0.00 | 0.10 | 0.10 | 99 | 1011.8 |
| 20260503020642 | 24 | 343 | 3.2 | 4.8 | 0.00 | 0.10 | 0.10 | 99 | 1011.8 |
| 20260503020412 | 24 | 0 | 3.2 | 12.9 | 0.00 | 0.10 | 0.10 | 99 | 1011.8 |
| 20260503020212 | 24 | 307 | 3.2 | 4.8 | 0.00 | 0.10 | 0.10 | 99 | 1011.8 |
| 20260503015942 | 25 | 0 | 3.2 | 9.7 | 0.00 | 0.10 | 0.10 | 99 | 1011.9 |
| 20260503015712 | 25 | 344 | 4.8 | 14.5 | 0.00 | 0.10 | 0.10 | 99 | 1011.9 |
| 20260503015442 | 25 | 351 | 3.2 | 4.8 | 0.00 | 0.10 | 0.10 | 99 | 1011.9 |
| 20260503015242 | 25 | 20 | 3.2 | 4.8 | 0.00 | 0.10 | 0.10 | 99 | 1011.9 |
| 20260503015012 | 25 | 323 | 3.2 | 4.8 | 0.00 | 0.10 | 0.10 | 99 | 1011.9 |
| 20260503014742 | 25 | 355 | 3.2 | 4.8 | 0.00 | 0.10 | 0.10 | 99 | 1012.0 |
| 20260503014513 | 25 | 304 | 8.0 | 11.3 | 0.00 | 0.10 | 0.10 | 99 | 1012.0 |
| 20260503014242 | 25 | 342 | 3.2 | 11.3 | 0.00 | 0.10 | 0.10 | 99 | 1012.0 |
| 20260503014012 | 25 | 341 | 1.6 | 4.8 | 0.00 | 0.10 | 0.10 | 99 | 1012.0 |
| 20260503013812 | 24 | 353 | 3.2 | 4.8 | 0.00 | 0.10 | 0.10 | 99 | 1012.0 |
| 20260503013612 | 24 | 355 | 4.8 | 11.3 | 0.00 | 0.10 | 0.10 | 99 | 1012.0 |
| 20260503013342 | 24 | 358 | 3.2 | 8.0 | 0.00 | 0.10 | 0.10 | 99 | 1012.0 |
| 20260503013142 | 25 | 5 | 4.8 | 4.8 | 0.00 | 0.10 | 0.10 | 99 | 1012.0 |
| 20260503012912 | 24 | 350 | 3.2 | 4.8 | 0.00 | 0.10 | 0.10 | 99 | 1012.0 |
| 20260503012642 | 24 | 8 | 3.2 | 4.8 | 0.00 | 0.10 | 0.10 | 99 | 1012.0 |
| 20260503012412 | 24 | 20 | 3.2 | 11.3 | 0.00 | 0.10 | 0.10 | 99 | 1012.0 |
| 20260503012212 | 24 | 336 | 9.7 | 12.9 | 0.00 | 0.10 | 0.10 | 99 | 1012.1 |
| 20260503012012 | 25 | 356 | 8.0 | 16.1 | 0.00 | 0.10 | 0.10 | 99 | 1012.0 |
| 20260503011812 | 25 | 351 | 3.2 | 4.8 | 0.00 | 0.10 | 0.10 | 99 | 1012.1 |
| 20260503011542 | 25 | 347 | 4.8 | 9.7 | 0.00 | 0.10 | 0.10 | 99 | 1012.1 |
| 20260503011312 | 25 | 356 | 3.2 | 4.8 | 0.00 | 0.10 | 0.10 | 99 | 1012.1 |
| 20260503011042 | 25 | 6 | 4.8 | 11.3 | 0.00 | 0.10 | 0.10 | 99 | 1012.1 |
| 20260503010842 | 25 | 5 | 4.8 | 8.0 | 0.00 | 0.10 | 0.10 | 99 | 1012.1 |
| 20260503010642 | 25 | 13 | 3.2 | 4.8 | 0.00 | 0.10 | 0.10 | 99 | 1012.1 |
| 20260503010412 | 25 | 347 | 4.8 | 11.3 | 0.00 | 0.10 | 0.10 | 99 | 1012.1 |
| 20260503010142 | 25 | 0 | 4.8 | 11.3 | 0.00 | 0.10 | 0.10 | 99 | 1012.1 |
| 20260503005942 | 25 | 342 | 3.2 | 8.0 | 0.00 | 0.10 | 0.10 | 99 | 1012.1 |
| 20260503005712 | 25 | 348 | 4.8 | 11.3 | 0.00 | 0.10 | 0.10 | 99 | 1012.2 |
| 20260503005512 | 25 | 355 | 4.8 | 12.9 | 0.00 | 0.10 | 0.10 | 99 | 1012.2 |
| 20260503005312 | 25 | 9 | 8.0 | 9.7 | 0.00 | 0.10 | 0.10 | 99 | 1012.2 |
| 20260503005112 | 25 | 7 | 4.8 | 8.0 | 0.00 | 0.10 | 0.10 | 99 | 1012.3 |
| 20260503004842 | 25 | 353 | 1.6 | 4.8 | 0.00 | 0.10 | 0.10 | 99 | 1012.3 |
| 20260503004642 | 25 | 18 | 3.2 | 4.8 | 0.00 | 0.10 | 0.10 | 99 | 1012.3 |
| 20260503004412 | 25 | 6 | 4.8 | 8.0 | 0.00 | 0.10 | 0.10 | 99 | 1012.3 |
| 20260503004212 | 25 | 357 | 1.6 | 4.8 | 0.00 | 0.10 | 0.10 | 99 | 1012.4 |
| 20260503003942 | 25 | 354 | 3.2 | 8.0 | 0.00 | 0.10 | 0.10 | 99 | 1012.4 |
| 20260503003742 | 25 | 25 | 3.2 | 4.8 | 0.00 | 0.10 | 0.10 | 99 | 1012.4 |
| 20260503003512 | 25 | 17 | 4.8 | 12.9 | 0.00 | 0.10 | 0.10 | 99 | 1012.4 |
| 20260503003312 | 25 | 324 | 0.0 | 8.0 | 0.00 | 0.10 | 0.10 | 99 | 1012.4 |
| 20260503003042 | 25 | 3 | 1.6 | 4.8 | 0.00 | 0.10 | 0.10 | 99 | 1012.4 |
| 20260503002842 | 25 | 321 | 3.2 | 4.8 | 0.00 | 0.10 | 0.10 | 99 | 1012.4 |
| 20260503002612 | 25 | 339 | 3.2 | 4.8 | 0.00 | 0.10 | 0.10 | 99 | 1012.4 |
| 20260503002412 | 25 | 0 | 4.8 | 4.8 | 0.00 | 0.10 | 0.10 | 99 | 1012.5 |
| 20260503002142 | 25 | 10 | 4.8 | 8.0 | 0.00 | 0.10 | 0.10 | 99 | 1012.5 |
| 20260503001912 | 25 | 358 | 4.8 | 11.3 | 0.00 | 0.10 | 0.10 | 99 | 1012.6 |
| 20260503001712 | 25 | 8 | 8.0 | 9.7 | 0.00 | 0.10 | 0.10 | 99 | 1012.6 |
| 20260503001442 | 25 | 12 | 4.8 | 11.3 | 0.00 | 0.10 | 0.10 | 99 | 1012.6 |
| 20260503001212 | 25 | 354 | 3.2 | 4.8 | 0.00 | 0.10 | 0.10 | 99 | 1012.6 |
| 20260503000942 | 25 | 354 | 8.0 | 14.5 | 0.00 | 0.10 | 0.10 | 99 | 1012.7 |
| 20260503000712 | 25 | 9 | 4.8 | 4.8 | 0.00 | 0.10 | 0.10 | 99 | 1012.7 |
| 20260503000512 | 25 | 0 | 8.0 | 9.7 | 0.00 | 0.10 | 0.10 | 99 | 1012.7 |
| 20260503000242 | 25 | 341 | 4.8 | 8.0 | 0.00 | 0.10 | 0.10 | 99 | 1012.7 |
| 20260503000042 | 24 | 348 | 8.0 | 4.8 | 0.00 | 0.10 | 0.10 | 99 | 1012.7 |
| 20260502235842 | 24 | 8 | 3.2 | 16.1 | 0.00 | 0.10 | 0.10 | 99 | 1012.7 |
| 20260502235642 | 24 | 13 | 3.2 | 8.0 | 0.00 | 0.10 | 0.10 | 99 | 1012.7 |
| 20260502235442 | 24 | 20 | 4.8 | 9.7 | 0.00 | 0.10 | 0.10 | 99 | 1012.8 |
| 20260502235212 | 24 | 7 | 8.0 | 12.9 | 0.00 | 0.10 | 0.10 | 99 | 1012.8 |
| 20260502235012 | 24 | 1 | 8.0 | 9.7 | 0.00 | 0.10 | 0.10 | 99 | 1012.8 |
| 20260502234812 | 25 | 1 | 9.7 | 14.5 | 0.00 | 0.10 | 0.10 | 99 | 1012.9 |
| 20260502234612 | 25 | 351 | 8.0 | 12.9 | 0.00 | 0.10 | 0.10 | 99 | 1012.9 |
| 20260502234412 | 25 | 2 | 4.8 | 9.7 | 0.00 | 0.10 | 0.10 | 99 | 1012.9 |
| 20260502234212 | 25 | 35 | 3.2 | 4.8 | 0.00 | 0.10 | 0.10 | 99 | 1012.9 |
| 20260502234012 | 25 | 340 | 3.2 | 4.8 | 0.00 | 0.10 | 0.10 | 99 | 1012.9 |
| 20260502233742 | 25 | 354 | 4.8 | 11.3 | 0.00 | 0.10 | 0.10 | 99 | 1012.9 |
| 20260502233542 | 25 | 1 | 3.2 | 4.8 | 0.00 | 0.10 | 0.10 | 99 | 1012.9 |
| 20260502233312 | 25 | 11 | 4.8 | 12.9 | 0.00 | 0.10 | 0.10 | 99 | 1013.0 |
| 20260502233112 | 25 | 353 | 4.8 | 8.0 | 0.00 | 0.10 | 0.10 | 99 | 1013.0 |
| 20260502232842 | 25 | 343 | 8.0 | 11.3 | 0.00 | 0.10 | 0.10 | 99 | 1013.0 |
| 20260502232642 | 25 | 341 | 4.8 | 11.3 | 0.00 | 0.10 | 0.10 | 99 | 1013.0 |
| 20260502232442 | 25 | 356 | 8.0 | 12.9 | 0.00 | 0.10 | 0.10 | 99 | 1013.0 |
| 20260502232212 | 25 | 356 | 4.8 | 8.0 | 0.00 | 0.10 | 0.10 | 99 | 1013.1 |
| 20260502232012 | 24 | 321 | 3.2 | 12.9 | 0.00 | 0.10 | 0.10 | 99 | 1013.0 |
| 20260502231742 | 24 | 329 | 8.0 | 16.1 | 0.00 | 0.10 | 0.10 | 99 | 1013.1 |
| 20260502231542 | 25 | 345 | 3.2 | 9.7 | 0.00 | 0.10 | 0.10 | 99 | 1013.1 |
| 20260502231342 | 24 | 271 | 1.6 | 8.0 | 0.00 | 0.10 | 0.10 | 99 | 1013.2 |
| 20260502231112 | 24 | 0 | 3.2 | 9.7 | 0.00 | 0.10 | 0.10 | 99 | 1013.3 |
| 20260502230842 | 24 | 12 | 4.8 | 16.1 | 0.00 | 0.10 | 0.10 | 99 | 1013.3 |
| 20260502230612 | 24 | 353 | 1.6 | 8.0 | 0.00 | 0.10 | 0.10 | 99 | 1013.3 |
| 20260502230412 | 24 | 7 | 4.8 | 4.8 | 0.00 | 0.10 | 0.10 | 99 | 1013.3 |
| 20260502230212 | 24 | 4 | 9.7 | 12.9 | 0.00 | 0.10 | 0.10 | 99 | 1013.4 |
| 20260502230012 | 24 | 13 | 4.8 | 4.8 | 0.00 | 0.10 | 0.10 | 99 | 1013.4 |
| 20260502225742 | 24 | 333 | 3.2 | 8.0 | 0.00 | 0.10 | 0.10 | 99 | 1013.4 |
| 20260502225512 | 24 | 14 | 8.0 | 16.1 | 0.00 | 0.10 | 0.10 | 99 | 1013.5 |
| 20260502225312 | 24 | 312 | 8.0 | 9.7 | 0.00 | 0.10 | 0.10 | 99 | 1013.5 |
| 20260502225112 | 24 | 325 | 3.2 | 9.7 | 0.00 | 0.10 | 0.10 | 99 | 1013.6 |
| 20260502224842 | 24 | 9 | 8.0 | 11.3 | 0.00 | 0.10 | 0.10 | 99 | 1013.6 |
| 20260502224642 | 24 | 307 | 4.8 | 9.7 | 0.00 | 0.10 | 0.10 | 99 | 1013.6 |
| 20260502224442 | 24 | 2 | 4.8 | 12.9 | 0.00 | 0.10 | 0.10 | 99 | 1013.6 |
| 20260502224242 | 23 | 335 | 4.8 | 11.3 | 0.00 | 0.10 | 0.10 | 99 | 1013.7 |
| 20260502224012 | 23 | 338 | 4.8 | 19.3 | 0.00 | 0.10 | 0.10 | 99 | 1013.7 |
| 20260502223742 | 23 | 26 | 4.8 | 8.0 | 0.00 | 0.10 | 0.10 | 99 | 1013.7 |
| 20260502223512 | 23 | 4 | 4.8 | 12.9 | 0.00 | 0.10 | 0.10 | 99 | 1013.8 |
| 20260502223242 | 23 | 5 | 8.0 | 4.8 | 0.00 | 0.10 | 0.10 | 99 | 1013.8 |
| 20260502223042 | 23 | 6 | 4.8 | 12.9 | 0.00 | 0.10 | 0.10 | 99 | 1013.9 |
| 20260502222812 | 23 | 22 | 4.8 | 9.7 | 0.00 | 0.10 | 0.10 | 99 | 1013.9 |
| 20260502222542 | 23 | 345 | 4.8 | 4.8 | 0.00 | 0.10 | 0.10 | 99 | 1013.9 |
| 20260502222342 | 23 | 0 | 8.0 | 11.3 | 0.00 | 0.10 | 0.10 | 99 | 1013.9 |
| 20260502222142 | 23 | 7 | 8.0 | 12.9 | 0.00 | 0.10 | 0.10 | 99 | 1013.9 |
| 20260502221942 | 23 | 358 | 8.0 | 12.9 | 0.00 | 0.10 | 0.10 | 99 | 1013.9 |
| 20260502221712 | 23 | 355 | 8.0 | 11.3 | 0.00 | 0.10 | 0.10 | 99 | 1013.9 |
| 20260502221512 | 23 | 9 | 9.7 | 16.1 | 0.00 | 0.10 | 0.10 | 99 | 1013.9 |
| 20260502221242 | 23 | 12 | 8.0 | 12.9 | 0.00 | 0.10 | 0.10 | 99 | 1014.0 |
| 20260502221012 | 23 | 10 | 9.7 | 11.3 | 0.00 | 0.10 | 0.10 | 99 | 1013.9 |
| 20260502220742 | 23 | 0 | 4.8 | 12.9 | 0.00 | 0.10 | 0.10 | 99 | 1014.0 |
| 20260502220542 | 22 | 0 | 8.0 | 9.7 | 0.00 | 0.10 | 0.10 | 99 | 1014.0 |
| 20260502220312 | 23 | 353 | 11.3 | 16.1 | 0.00 | 0.10 | 0.10 | 99 | 1014.1 |
| 20260502220112 | 23 | 9 | 4.8 | 11.3 | 0.00 | 0.10 | 0.10 | 99 | 1014.1 |
| 20260502215912 | 23 | 1 | 9.7 | 14.5 | 0.00 | 0.10 | 0.10 | 99 | 1014.1 |
| 20260502215642 | 23 | 12 | 4.8 | 9.7 | 0.00 | 0.10 | 0.10 | 99 | 1014.1 |
| 20260502215442 | 23 | 1 | 8.0 | 14.5 | 0.00 | 0.10 | 0.10 | 99 | 1014.1 |
| 20260502215212 | 23 | 358 | 4.8 | 16.1 | 0.00 | 0.10 | 0.10 | 99 | 1014.1 |
| 20260502214942 | 23 | 5 | 4.8 | 11.3 | 0.00 | 0.10 | 0.10 | 99 | 1014.2 |
| 20260502214742 | 23 | 1 | 4.8 | 8.0 | 0.00 | 0.10 | 0.10 | 99 | 1014.2 |
| 20260502214542 | 22 | 3 | 4.8 | 8.0 | 0.00 | 0.10 | 0.10 | 99 | 1014.2 |
| 20260502214312 | 22 | 2 | 8.0 | 9.7 | 0.00 | 0.10 | 0.10 | 99 | 1014.2 |
| 20260502214042 | 22 | 8 | 4.8 | 8.0 | 0.00 | 0.10 | 0.10 | 99 | 1014.3 |
| 20260502213812 | 22 | 8 | 9.7 | 14.5 | 0.00 | 0.10 | 0.10 | 99 | 1014.3 |
| 20260502213542 | 22 | 351 | 8.0 | 12.9 | 0.00 | 0.10 | 0.10 | 99 | 1014.3 |
| 20260502213342 | 22 | 357 | 8.0 | 11.3 | 0.00 | 0.10 | 0.10 | 99 | 1014.3 |